createdAt,value
2019-03-04T00:00:41.789Z,46.18
2019-03-04T00:03:09.020Z,46.20
2019-03-04T00:05:36.930Z,46.37
2019-03-04T00:08:03.887Z,46.45
2019-03-04T00:10:31.275Z,46.66
2019-03-04T00:12:59.180Z,47.18
2019-03-04T00:15:26.568Z,47.11
2019-03-04T00:17:54.609Z,46.83
2019-03-04T00:20:24.937Z,46.69
2019-03-04T00:22:52.360Z,46.24
2019-03-04T00:25:22.498Z,46.15
2019-03-04T00:27:51.529Z,46.05
2019-03-04T00:30:18.776Z,46.12
2019-03-04T00:32:46.187Z,46.35
2019-03-04T00:35:13.629Z,46.47
2019-03-04T00:37:41.170Z,46.36
2019-03-04T00:40:15.086Z,46.14
2019-03-04T00:42:42.585Z,45.78
2019-03-04T00:45:12.529Z,46.08
2019-03-04T00:47:39.628Z,46.51
2019-03-04T00:50:11.979Z,47.22
2019-03-04T00:52:38.929Z,48.07
2019-03-04T00:55:07.708Z,48.41
2019-03-04T00:57:34.824Z,48.58
2019-03-04T01:00:05.252Z,48.65
2019-03-04T01:02:32.035Z,48.53
2019-03-04T01:04:58.805Z,48.36
2019-03-04T01:07:25.955Z,47.89
2019-03-04T01:09:53.285Z,47.44
2019-03-04T01:12:20.792Z,46.92
2019-03-04T01:14:47.599Z,46.68
2019-03-04T01:17:15.087Z,46.78
2019-03-04T01:19:42.126Z,46.85
2019-03-04T01:22:08.942Z,46.84
2019-03-04T01:24:36.088Z,46.80
2019-03-04T01:27:02.867Z,46.27
2019-03-04T01:29:29.913Z,46.18
2019-03-04T01:31:56.645Z,44.87
2019-03-04T01:34:24.327Z,45.11
2019-03-04T01:36:51.114Z,44.70
2019-03-04T01:39:18.433Z,44.93
2019-03-04T01:41:45.779Z,44.91
2019-03-04T01:44:14.060Z,44.85
2019-03-04T01:46:40.897Z,44.69
2019-03-04T01:49:07.827Z,44.85
2019-03-04T01:51:34.562Z,44.99
2019-03-04T01:54:01.450Z,45.31
2019-03-04T01:56:28.426Z,45.21
2019-03-04T01:58:55.599Z,45.44
2019-03-04T02:01:22.491Z,45.51
2019-03-04T02:03:50.112Z,45.69
2019-03-04T02:06:17.080Z,45.79
2019-03-04T02:08:43.871Z,46.03
2019-03-04T02:11:10.847Z,46.13
2019-03-04T02:13:37.806Z,46.14
2019-03-04T02:16:07.275Z,46.30
2019-03-04T02:18:35.239Z,46.44
2019-03-04T02:21:02.415Z,46.67
2019-03-04T02:23:31.028Z,46.90
2019-03-04T02:26:06.214Z,46.95
2019-03-04T02:28:33.083Z,46.85
2019-03-04T02:31:00.164Z,46.80
2019-03-04T02:33:30.344Z,46.73
2019-03-04T02:35:57.226Z,46.68
2019-03-04T02:38:24.686Z,46.53
2019-03-04T02:40:51.454Z,46.58
2019-03-04T02:43:18.541Z,46.46
2019-03-04T02:45:45.357Z,46.55
2019-03-04T02:48:13.054Z,46.51
2019-03-04T02:50:39.879Z,46.61
2019-03-04T02:53:07.056Z,46.79
2019-03-04T02:55:34.208Z,47.28
2019-03-04T02:58:01.094Z,48.26
2019-03-04T03:00:28.169Z,48.62
2019-03-04T03:02:54.989Z,48.72
2019-03-04T03:05:21.814Z,49.09
2019-03-04T03:07:49.030Z,49.68
2019-03-04T03:10:16.154Z,50.21
2019-03-04T03:12:43.017Z,50.61
2019-03-04T03:15:13.925Z,50.12
2019-03-04T03:17:40.870Z,49.42
2019-03-04T03:20:15.077Z,49.47
2019-03-04T03:22:42.170Z,49.77
2019-03-04T03:25:12.186Z,49.97
2019-03-04T03:27:39.059Z,50.03
2019-03-04T03:30:16.754Z,50.02
2019-03-04T03:32:43.609Z,49.96
2019-03-04T03:35:10.716Z,50.00
2019-03-04T03:37:37.725Z,50.02
2019-03-04T03:40:09.732Z,49.94
2019-03-04T03:42:37.123Z,49.86
2019-03-04T03:45:07.312Z,49.90
2019-03-04T03:47:34.237Z,49.74
2019-03-04T03:50:01.051Z,49.52
2019-03-04T03:52:28.020Z,49.33
2019-03-04T03:54:54.868Z,49.45
2019-03-04T03:57:21.712Z,49.69
2019-03-04T03:59:48.935Z,49.92
2019-03-04T04:02:16.168Z,50.14
2019-03-04T04:04:42.932Z,50.37
2019-03-04T04:07:09.862Z,50.50
2019-03-04T04:09:36.612Z,50.48
2019-03-04T04:12:03.851Z,50.27
2019-03-04T04:14:30.709Z,50.13
2019-03-04T04:16:57.697Z,50.19
2019-03-04T04:19:25.054Z,50.25
2019-03-04T04:21:51.974Z,50.44
2019-03-04T04:24:19.147Z,50.50
2019-03-04T04:26:46.139Z,50.53
2019-03-04T04:29:13.959Z,50.65
2019-03-04T04:31:41.903Z,50.58
2019-03-04T04:34:09.068Z,50.43
2019-03-04T04:36:36.176Z,50.37
2019-03-04T04:39:04.918Z,50.39
2019-03-04T04:41:31.689Z,50.41
2019-03-04T04:43:59.981Z,50.28
2019-03-04T04:46:49.798Z,50.03
2019-03-04T04:49:17.122Z,49.65
2019-03-04T04:51:44.112Z,49.37
2019-03-04T04:54:12.233Z,49.38
2019-03-04T04:56:39.501Z,49.31
2019-03-04T04:59:06.472Z,49.24
2019-03-04T05:01:33.357Z,49.36
2019-03-04T05:04:00.508Z,49.38
2019-03-04T05:06:27.300Z,49.34
2019-03-04T05:08:54.151Z,49.30
2019-03-04T05:11:21.300Z,49.34
2019-03-04T05:13:48.112Z,49.41
2019-03-04T05:16:14.900Z,49.57
2019-03-04T05:18:41.833Z,49.50
2019-03-04T05:21:09.077Z,49.64
2019-03-04T05:23:36.334Z,50.58
2019-03-04T05:26:03.904Z,51.26
2019-03-04T05:28:30.957Z,51.82
2019-03-04T05:30:57.783Z,52.13
2019-03-04T05:33:24.986Z,52.26
2019-03-04T05:35:52.210Z,52.09
2019-03-04T05:38:19.690Z,51.94
2019-03-04T05:40:46.790Z,51.76
2019-03-04T05:43:13.898Z,51.86
2019-03-04T05:45:40.663Z,52.21
2019-03-04T05:48:07.756Z,52.31
2019-03-04T05:50:35.274Z,52.66
2019-03-04T05:53:02.507Z,52.91
2019-03-04T05:55:29.375Z,53.34
2019-03-04T05:57:56.159Z,54.13
2019-03-04T06:00:24.846Z,54.47
2019-03-04T06:03:15.487Z,54.48
2019-03-04T06:05:42.312Z,54.45
2019-03-04T06:08:12.114Z,54.08
2019-03-04T06:10:39.414Z,53.87
2019-03-04T06:13:06.311Z,54.11
2019-03-04T06:15:33.189Z,54.55
2019-03-04T06:18:00.045Z,54.62
2019-03-04T06:20:26.888Z,54.43
2019-03-04T06:22:54.003Z,54.46
2019-03-04T06:25:27.297Z,54.47
2019-03-04T06:27:56.938Z,54.57
2019-03-04T06:30:28.917Z,54.94
2019-03-04T06:32:55.699Z,55.35
2019-03-04T06:35:22.706Z,55.58
2019-03-04T06:37:49.889Z,55.40
2019-03-04T06:40:18.444Z,55.14
2019-03-04T06:42:45.648Z,54.85
2019-03-04T06:45:18.660Z,54.97
2019-03-04T06:47:45.451Z,54.95
2019-03-04T06:50:54.823Z,55.13
2019-03-04T06:53:36.297Z,54.50
2019-03-04T06:56:29.110Z,53.54
2019-03-04T06:59:04.654Z,51.81
2019-03-04T07:01:55.289Z,47.60
2019-03-04T07:04:30.648Z,44.98
2019-03-04T07:06:57.767Z,43.54
2019-03-04T07:09:24.882Z,42.29
2019-03-04T07:11:52.192Z,41.74
2019-03-04T07:14:19.596Z,41.22
2019-03-04T07:16:47.231Z,41.08
2019-03-04T07:19:15.375Z,41.58
2019-03-04T07:21:43.060Z,42.63
2019-03-04T07:24:10.481Z,43.71
2019-03-04T07:26:39.882Z,44.66
2019-03-04T07:29:07.300Z,45.64
2019-03-04T07:31:34.473Z,46.22
2019-03-04T07:34:01.860Z,46.99
2019-03-04T07:36:29.278Z,47.71
2019-03-04T07:38:56.399Z,48.54
2019-03-04T07:41:23.461Z,49.56
2019-03-04T07:43:50.598Z,50.14
2019-03-04T07:46:19.493Z,50.95
2019-03-04T07:48:46.359Z,52.08
2019-03-04T07:51:17.339Z,52.92
2019-03-04T07:53:46.585Z,54.27
2019-03-04T07:56:13.231Z,55.64
2019-03-04T07:58:41.255Z,56.78
2019-03-04T08:01:08.098Z,59.52
2019-03-04T08:03:35.764Z,60.76
2019-03-04T08:06:03.223Z,62.17
2019-03-04T08:08:31.814Z,64.06
2019-03-04T08:11:44.954Z,65.49
2019-03-04T08:14:12.866Z,66.80
2019-03-04T08:16:39.670Z,66.06
2019-03-04T08:19:07.447Z,66.15
2019-03-04T08:21:35.182Z,66.05
2019-03-04T08:24:02.599Z,66.23
2019-03-04T08:26:29.585Z,65.56
2019-03-04T08:28:58.738Z,64.88
2019-03-04T08:31:26.883Z,64.13
2019-03-04T08:33:54.209Z,63.50
2019-03-04T08:36:21.981Z,61.64
2019-03-04T08:38:48.867Z,60.98
2019-03-04T08:41:15.754Z,60.40
2019-03-04T08:43:43.330Z,59.97
2019-03-04T08:46:10.608Z,59.52
2019-03-04T08:48:37.596Z,58.73
2019-03-04T08:51:04.794Z,58.14
2019-03-04T08:53:32.380Z,57.61
2019-03-04T08:55:59.528Z,57.08
2019-03-04T08:58:27.285Z,56.93
2019-03-04T09:00:54.407Z,55.47
2019-03-04T09:03:21.530Z,55.76
2019-03-04T09:05:49.296Z,55.75
2019-03-04T09:08:16.936Z,55.47
2019-03-04T09:10:44.227Z,55.34
2019-03-04T09:13:13.965Z,55.05
2019-03-04T09:15:40.977Z,54.76
2019-03-04T09:18:10.907Z,53.94
2019-03-04T09:20:49.196Z,51.85
2019-03-04T09:23:16.510Z,52.70
2019-03-04T09:25:59.553Z,52.06
2019-03-04T09:28:29.109Z,49.89
2019-03-04T09:30:59.384Z,51.25
2019-03-04T09:33:31.316Z,51.17
2019-03-04T09:35:58.379Z,50.66
2019-03-04T09:38:25.338Z,50.32
2019-03-04T09:40:52.897Z,50.57
2019-03-04T09:43:20.394Z,50.72
2019-03-04T09:45:47.580Z,49.76
2019-03-04T09:48:14.474Z,49.70
2019-03-04T09:50:41.621Z,49.85
2019-03-04T09:53:08.435Z,49.95
2019-03-04T09:55:36.344Z,49.65
2019-03-04T09:58:04.027Z,49.08
2019-03-04T10:00:45.912Z,48.93
2019-03-04T10:03:39.805Z,48.34
2019-03-04T10:06:48.454Z,48.40
2019-03-04T10:09:59.586Z,48.34
2019-03-04T10:12:53.662Z,48.10
2019-03-04T10:15:29.704Z,47.52
2019-03-04T10:18:21.444Z,47.66
2019-03-04T10:21:06.066Z,47.47
2019-03-04T10:24:16.175Z,47.91
2019-03-04T10:27:01.228Z,47.67
2019-03-04T10:29:37.210Z,48.07
2019-03-04T10:32:25.219Z,48.32
2019-03-04T10:35:07.055Z,48.29
2019-03-04T10:37:51.774Z,47.83
2019-03-04T10:40:44.076Z,47.94
2019-03-04T10:43:48.824Z,48.03
2019-03-04T10:46:29.954Z,47.81
2019-03-04T10:48:57.510Z,47.24
2019-03-04T10:51:24.324Z,47.33
2019-03-04T10:53:51.985Z,47.40
2019-03-04T10:56:18.928Z,46.98
2019-03-04T10:58:45.843Z,47.22
2019-03-04T11:01:13.119Z,47.02
2019-03-04T11:03:40.054Z,47.12
2019-03-04T11:06:07.283Z,46.36
2019-03-04T11:08:34.452Z,46.05
2019-03-04T11:11:02.113Z,45.21
2019-03-04T11:13:29.158Z,44.16
2019-03-04T11:15:56.556Z,44.11
2019-03-04T11:18:24.251Z,43.64
2019-03-04T11:20:51.314Z,43.62
2019-03-04T11:23:20.081Z,43.17
2019-03-04T11:25:47.116Z,43.16
2019-03-04T11:28:14.448Z,43.30
2019-03-04T11:30:41.370Z,43.43
2019-03-04T11:33:09.069Z,43.31
2019-03-04T11:35:38.044Z,43.41
2019-03-04T11:38:27.810Z,43.22
2019-03-04T11:40:55.596Z,43.00
2019-03-04T11:43:22.407Z,43.14
2019-03-04T11:45:49.809Z,42.72
2019-03-04T11:48:16.950Z,42.29
2019-03-04T11:50:44.064Z,42.07
2019-03-04T11:53:10.926Z,41.42
2019-03-04T11:55:37.692Z,41.61
2019-03-04T11:58:04.435Z,41.78
2019-03-04T12:00:33.324Z,41.16
2019-03-04T12:03:00.192Z,40.72
2019-03-04T12:05:27.524Z,41.04
2019-03-04T12:07:57.822Z,40.66
2019-03-04T12:10:32.184Z,40.88
2019-03-04T12:13:06.792Z,40.58
2019-03-04T12:15:42.997Z,40.97
2019-03-04T12:18:16.515Z,40.85
2019-03-04T12:20:45.724Z,41.43
2019-03-04T12:23:16.042Z,41.24
2019-03-04T12:25:46.278Z,37.45
2019-03-04T12:28:32.430Z,35.00
2019-03-04T12:30:59.884Z,34.79
2019-03-04T12:33:33.042Z,33.11
2019-03-04T12:36:03.158Z,30.52
2019-03-04T12:38:36.029Z,30.18
2019-03-04T12:41:07.545Z,30.92
2019-03-04T12:43:38.478Z,29.65
2019-03-04T12:46:13.560Z,30.83
2019-03-04T12:49:12.539Z,29.94
2019-03-04T12:51:40.210Z,29.21
2019-03-04T12:54:12.202Z,29.86
2019-03-04T12:56:39.726Z,27.69
2019-03-04T12:59:06.571Z,28.62
2019-03-04T13:01:34.176Z,27.75
2019-03-04T13:04:01.391Z,27.44
2019-03-04T13:06:28.656Z,27.70
2019-03-04T13:08:55.421Z,27.11
2019-03-04T13:11:22.214Z,25.70
2019-03-04T13:13:49.368Z,26.63
2019-03-04T13:16:16.320Z,26.91
2019-03-04T13:18:43.176Z,27.22
2019-03-04T13:21:10.524Z,27.84
2019-03-04T13:23:37.777Z,27.76
2019-03-04T13:26:04.948Z,29.85
2019-03-04T13:28:31.907Z,30.66
2019-03-04T13:30:59.300Z,30.54
2019-03-04T13:33:26.556Z,32.00
2019-03-04T13:35:54.850Z,33.23
2019-03-04T13:38:21.769Z,33.15
2019-03-04T13:40:48.669Z,34.68
2019-03-04T13:43:16.621Z,36.41
2019-03-04T13:45:43.975Z,38.09
2019-03-04T13:48:11.861Z,39.43
2019-03-04T13:50:39.251Z,40.55
2019-03-04T13:53:06.690Z,41.76
2019-03-04T13:55:33.939Z,42.55
2019-03-04T13:58:00.809Z,41.57
2019-03-04T14:00:32.393Z,38.89
2019-03-04T14:02:59.503Z,37.11
2019-03-04T14:05:26.246Z,38.55
2019-03-04T14:07:53.149Z,37.70
2019-03-04T14:10:37.164Z,35.57
2019-03-04T14:13:04.321Z,36.14
2019-03-04T14:15:42.321Z,36.87
2019-03-04T14:18:09.226Z,37.71
2019-03-04T14:20:36.313Z,38.35
2019-03-04T14:23:03.524Z,38.89
2019-03-04T14:25:30.338Z,39.33
2019-03-04T14:27:57.253Z,39.15
2019-03-04T14:30:24.609Z,39.72
2019-03-04T14:32:51.461Z,39.68
2019-03-04T14:35:18.330Z,40.06
2019-03-04T14:37:45.199Z,40.61
2019-03-04T14:40:17.823Z,40.58
2019-03-04T14:42:46.303Z,40.64
2019-03-04T14:45:23.580Z,40.70
2019-03-04T14:47:51.003Z,40.53
2019-03-04T14:50:20.273Z,40.38
2019-03-04T14:52:47.197Z,40.41
2019-03-04T14:55:20.228Z,40.30
2019-03-04T14:57:47.171Z,40.27
2019-03-04T15:00:37.362Z,40.30
2019-03-04T15:03:05.414Z,40.55
2019-03-04T15:05:32.600Z,42.04
2019-03-04T15:07:59.492Z,42.72
2019-03-04T15:10:26.539Z,44.66
2019-03-04T15:12:53.680Z,48.04
2019-03-04T15:15:26.398Z,51.10
2019-03-04T15:17:53.639Z,56.06
2019-03-04T15:20:24.131Z,58.52
2019-03-04T15:22:51.017Z,62.89
2019-03-04T15:25:31.250Z,65.39
2019-03-04T15:28:22.601Z,66.55
2019-03-04T15:31:00.038Z,65.91
2019-03-04T15:33:26.992Z,66.20
2019-03-04T15:35:53.934Z,65.37
2019-03-04T15:38:20.964Z,66.21
2019-03-04T15:40:47.723Z,65.82
2019-03-04T15:43:14.550Z,65.78
2019-03-04T15:45:43.795Z,64.67
2019-03-04T15:48:11.335Z,64.34
2019-03-04T15:50:38.712Z,63.68
2019-03-04T15:53:05.677Z,63.43
2019-03-04T15:55:33.136Z,63.81
2019-03-04T15:58:00.093Z,64.41
2019-03-04T16:00:26.970Z,63.22
2019-03-04T16:02:54.344Z,62.24
2019-03-04T16:05:21.125Z,62.31
2019-03-04T16:07:48.020Z,62.59
2019-03-04T16:10:30.635Z,63.31
2019-03-04T16:12:57.615Z,62.95
2019-03-04T16:15:24.429Z,61.89
2019-03-04T16:17:51.307Z,62.98
2019-03-04T16:20:21.159Z,63.35
2019-03-04T16:22:50.279Z,62.55
2019-03-04T16:25:19.146Z,62.45
2019-03-04T16:27:46.233Z,63.30
2019-03-04T16:30:22.105Z,62.37
2019-03-04T16:32:49.321Z,62.50
2019-03-04T16:35:16.178Z,62.08
2019-03-04T16:37:43.143Z,61.66
2019-03-04T16:40:17.512Z,62.04
2019-03-04T16:42:44.619Z,63.21
2019-03-04T16:45:16.810Z,66.26
2019-03-04T16:47:43.811Z,67.11
2019-03-04T16:50:14.135Z,69.13
2019-03-04T16:52:43.530Z,69.57
2019-03-04T16:55:13.452Z,69.76
2019-03-04T16:57:40.597Z,69.88
2019-03-04T17:00:12.939Z,71.03
2019-03-04T17:02:40.326Z,70.00
2019-03-04T17:05:10.725Z,73.38
2019-03-04T17:07:37.527Z,69.75
2019-03-04T17:10:11.716Z,69.82
2019-03-04T17:12:40.803Z,69.91
2019-03-04T17:15:15.110Z,70.37
2019-03-04T17:17:41.878Z,69.20
2019-03-04T17:20:13.451Z,69.45
2019-03-04T17:22:40.629Z,68.62
2019-03-04T17:25:17.272Z,68.47
2019-03-04T17:27:44.217Z,68.58
2019-03-04T17:30:14.710Z,68.06
2019-03-04T17:32:42.016Z,67.29
2019-03-04T17:35:12.219Z,66.86
2019-03-04T17:37:39.761Z,66.39
2019-03-04T17:40:15.428Z,66.20
2019-03-04T17:42:42.802Z,66.03
2019-03-04T17:45:13.289Z,65.35
2019-03-04T17:47:40.062Z,64.99
2019-03-04T17:50:27.501Z,65.21
2019-03-04T17:52:54.491Z,64.79
2019-03-04T17:55:21.787Z,65.39
2019-03-04T17:57:48.912Z,64.97
2019-03-04T18:00:18.672Z,64.75
2019-03-04T18:02:48.179Z,65.10
2019-03-04T18:05:14.982Z,65.20
2019-03-04T18:07:41.750Z,65.26
2019-03-04T18:10:14.646Z,65.27
2019-03-04T18:12:41.905Z,65.62
2019-03-04T18:15:19.642Z,65.23
2019-03-04T18:17:46.714Z,65.31
2019-03-04T18:20:17.469Z,65.53
2019-03-04T18:22:44.777Z,65.67
2019-03-04T18:25:29.023Z,65.72
2019-03-04T18:28:13.411Z,65.95
2019-03-04T18:30:58.215Z,66.06
2019-03-04T18:33:45.582Z,65.92
2019-03-04T18:36:27.218Z,66.24
2019-03-04T18:39:28.756Z,66.06
2019-03-04T18:42:20.802Z,65.87
2019-03-04T18:44:56.218Z,65.95
2019-03-04T18:47:46.760Z,65.99
2019-03-04T18:50:13.886Z,66.64
2019-03-04T18:52:40.692Z,65.67
2019-03-04T18:55:08.419Z,66.01
2019-03-04T18:57:35.264Z,65.96
2019-03-04T19:00:11.283Z,65.65
2019-03-04T19:02:38.438Z,65.62
2019-03-04T19:05:08.977Z,65.11
2019-03-04T19:07:35.742Z,65.52
2019-03-04T19:10:08.046Z,65.87
2019-03-04T19:12:35.090Z,65.39
2019-03-04T19:15:02.487Z,65.04
2019-03-04T19:17:33.460Z,65.50
2019-03-04T19:19:58.175Z,65.51
2019-03-04T19:22:25.087Z,66.42
2019-03-04T19:24:51.883Z,66.54
2019-03-04T19:27:20.309Z,66.98
2019-03-04T19:29:47.815Z,67.50
2019-03-04T19:32:17.314Z,67.91
2019-03-04T19:34:44.131Z,67.79
2019-03-04T19:37:11.416Z,68.73
2019-03-04T19:39:41.607Z,69.11
2019-03-04T19:42:08.462Z,69.17
2019-03-04T19:44:35.491Z,69.32
2019-03-04T19:47:02.685Z,69.69
2019-03-04T19:49:32.580Z,70.19
2019-03-04T19:51:59.402Z,70.32
2019-03-04T19:54:26.441Z,70.39
2019-03-04T19:56:53.247Z,70.62
2019-03-04T19:59:20.258Z,71.32
2019-03-04T20:01:47.362Z,70.68
2019-03-04T20:04:14.782Z,70.03
2019-03-04T20:06:41.690Z,70.12
2019-03-04T20:09:09.400Z,69.61
2019-03-04T20:11:36.609Z,69.05
2019-03-04T20:14:03.414Z,68.87
2019-03-04T20:16:30.679Z,69.46
2019-03-04T20:18:57.751Z,69.29
2019-03-04T20:21:24.622Z,68.78
2019-03-04T20:23:51.533Z,68.75
2019-03-04T20:26:18.328Z,68.76
2019-03-04T20:28:45.361Z,69.04
2019-03-04T20:31:12.717Z,68.89
2019-03-04T20:33:39.914Z,69.00
2019-03-04T20:36:07.093Z,69.22
2019-03-04T20:38:39.509Z,68.98
2019-03-04T20:41:06.676Z,68.89
2019-03-04T20:43:33.955Z,68.72
2019-03-04T20:46:01.733Z,69.39
2019-03-04T20:48:28.670Z,70.21
2019-03-04T20:51:00.029Z,70.75
2019-03-04T20:53:27.114Z,70.45
2019-03-04T20:55:54.562Z,70.88
2019-03-04T20:58:21.553Z,70.96
2019-03-04T21:00:50.536Z,71.25
2019-03-04T21:03:19.306Z,71.12
2019-03-04T21:05:46.163Z,70.50
2019-03-04T21:08:13.106Z,71.38
2019-03-04T21:10:41.740Z,71.15
2019-03-04T21:13:16.366Z,71.70
2019-03-04T21:15:44.122Z,71.74
2019-03-04T21:18:12.182Z,71.69
2019-03-04T21:20:39.831Z,72.29
2019-03-04T21:23:07.588Z,72.66
2019-03-04T21:25:46.414Z,72.21
2019-03-04T21:28:25.166Z,72.70
2019-03-04T21:31:07.268Z,72.39
2019-03-04T21:34:07.978Z,73.91
2019-03-04T21:37:01.643Z,74.42
2019-03-04T21:39:51.344Z,74.14
2019-03-04T21:42:27.099Z,73.56
2019-03-04T21:45:22.362Z,73.39
2019-03-04T21:48:00.696Z,74.29
2019-03-04T21:50:38.981Z,73.18
2019-03-04T21:53:14.953Z,72.98
2019-03-04T21:55:50.545Z,73.00
2019-03-04T21:58:17.761Z,73.69
2019-03-04T22:00:47.569Z,72.67
2019-03-04T22:03:18.315Z,72.49
2019-03-04T22:05:50.167Z,73.07
2019-03-04T22:08:14.991Z,72.13
2019-03-04T22:10:42.899Z,71.60
2019-03-04T22:13:09.742Z,71.64
2019-03-04T22:15:37.593Z,70.55
2019-03-04T22:18:07.695Z,70.29
2019-03-04T22:20:37.524Z,69.60
2019-03-04T22:23:06.205Z,69.21
2019-03-04T22:25:33.005Z,68.72
2019-03-04T22:27:59.899Z,68.43
2019-03-04T22:30:26.811Z,68.12
2019-03-04T22:32:53.560Z,67.61
2019-03-04T22:35:20.558Z,67.03
2019-03-04T22:37:47.925Z,67.16
2019-03-04T22:40:18.784Z,66.32
2019-03-04T22:42:45.627Z,65.07
2019-03-04T22:45:15.861Z,65.55
2019-03-04T22:47:43.223Z,65.33
2019-03-04T22:50:14.209Z,65.02
2019-03-04T22:52:42.085Z,65.01
2019-03-04T22:55:14.638Z,65.23
2019-03-04T22:57:41.390Z,65.65
2019-03-04T23:00:52.248Z,65.62
2019-03-04T23:03:19.315Z,65.52
2019-03-04T23:05:57.434Z,65.07
2019-03-04T23:08:24.276Z,65.04
2019-03-04T23:10:51.222Z,65.07
2019-03-04T23:13:33.316Z,65.04
2019-03-04T23:16:01.091Z,64.67
2019-03-04T23:18:28.209Z,64.44
2019-03-04T23:20:55.427Z,64.35
2019-03-04T23:23:22.254Z,64.51
2019-03-04T23:25:49.468Z,64.25
2019-03-04T23:28:19.279Z,64.33
2019-03-04T23:30:46.194Z,64.27
2019-03-04T23:33:13.085Z,63.88
2019-03-04T23:35:39.918Z,64.02
2019-03-04T23:38:07.130Z,63.89
2019-03-04T23:40:34.057Z,63.72
2019-03-04T23:43:00.845Z,64.02
2019-03-04T23:45:36.917Z,63.48
2019-03-04T23:48:04.761Z,63.27
2019-03-04T23:50:32.281Z,63.07
2019-03-04T23:53:00.089Z,63.22
2019-03-04T23:55:27.100Z,62.95
2019-03-04T23:57:53.921Z,62.97
